createdAt,value
2017-08-23T00:01:06.565Z,1.20
2017-08-23T00:03:34.105Z,2.30
2017-08-23T00:06:01.600Z,1.07
2017-08-23T00:08:29.108Z,1.43
2017-08-23T00:10:56.655Z,1.47
2017-08-23T00:13:24.146Z,1.17
2017-08-23T00:15:51.658Z,1.30
2017-08-23T00:18:19.184Z,2.33
2017-08-23T00:20:46.685Z,2.20
2017-08-23T00:23:14.189Z,1.70
2017-08-23T00:25:41.722Z,1.03
2017-08-23T00:28:09.245Z,1.63
2017-08-23T00:30:36.790Z,1.07
2017-08-23T00:33:04.288Z,1.00
2017-08-23T00:35:31.784Z,1.80
2017-08-23T00:37:59.318Z,0.87
2017-08-23T00:40:26.836Z,1.47
2017-08-23T00:42:54.360Z,2.13
2017-08-23T00:45:21.858Z,1.60
2017-08-23T00:47:49.370Z,1.27
2017-08-23T00:50:16.976Z,1.30
2017-08-23T00:52:44.478Z,1.20
2017-08-23T00:55:12.015Z,1.43
2017-08-23T00:57:39.521Z,1.27
2017-08-23T01:00:07.008Z,1.33
2017-08-23T01:02:34.534Z,1.40
2017-08-23T01:05:02.025Z,1.20
2017-08-23T01:07:29.512Z,1.90
2017-08-23T01:09:57.048Z,2.77
2017-08-23T01:12:24.557Z,1.17
2017-08-23T01:14:52.062Z,1.00
2017-08-23T01:17:19.576Z,1.00
2017-08-23T01:19:47.063Z,1.27
2017-08-23T01:22:14.578Z,0.80
2017-08-23T01:24:42.078Z,0.80
2017-08-23T01:27:09.584Z,0.87
2017-08-23T01:29:37.087Z,1.23
2017-08-23T01:32:04.581Z,1.07
2017-08-23T01:34:32.097Z,0.60
2017-08-23T01:36:59.593Z,0.90
2017-08-23T01:39:27.101Z,0.87
2017-08-23T01:41:54.616Z,1.03
2017-08-23T01:44:22.102Z,1.10
2017-08-23T01:46:49.591Z,0.93
2017-08-23T01:49:17.100Z,1.30
2017-08-23T01:51:44.593Z,1.00
2017-08-23T01:54:12.090Z,0.90
2017-08-23T01:56:39.598Z,0.87
2017-08-23T01:59:07.093Z,1.23
2017-08-23T02:01:34.590Z,1.07
2017-08-23T02:04:02.101Z,0.90
2017-08-23T02:06:29.591Z,1.13
2017-08-23T02:08:57.102Z,1.20
2017-08-23T02:11:24.601Z,1.10
2017-08-23T02:13:52.104Z,0.90
2017-08-23T02:16:19.608Z,0.87
2017-08-23T02:18:47.110Z,2.00
2017-08-23T02:21:14.625Z,0.70
2017-08-23T02:23:42.111Z,0.90
2017-08-23T02:26:09.610Z,2.57
2017-08-23T02:28:37.119Z,1.00
2017-08-23T02:31:04.605Z,0.90
2017-08-23T02:33:32.108Z,0.70
2017-08-23T02:35:59.604Z,0.80
2017-08-23T02:38:27.096Z,1.00
2017-08-23T02:40:54.609Z,1.23
2017-08-23T02:43:22.103Z,1.10
2017-08-23T02:45:49.614Z,1.23
2017-08-23T02:48:17.117Z,0.90
2017-08-23T02:50:44.622Z,1.90
2017-08-23T02:53:12.132Z,0.90
2017-08-23T02:55:39.641Z,1.70
2017-08-23T02:58:07.160Z,0.90
2017-08-23T03:00:34.655Z,0.90
2017-08-23T03:03:02.168Z,1.30
2017-08-23T03:05:29.671Z,1.63
2017-08-23T03:07:57.163Z,0.90
2017-08-23T03:10:24.671Z,1.00
2017-08-23T03:12:52.166Z,1.57
2017-08-23T03:15:19.664Z,1.27
2017-08-23T03:17:47.171Z,1.20
2017-08-23T03:20:14.674Z,0.93
2017-08-23T03:22:42.180Z,1.20
2017-08-23T03:25:09.669Z,1.00
2017-08-23T03:27:37.169Z,1.03
2017-08-23T03:30:04.677Z,0.80
2017-08-23T03:32:32.164Z,0.80
2017-08-23T03:34:59.668Z,0.70
2017-08-23T03:37:27.176Z,1.23
2017-08-23T03:39:54.664Z,1.33
2017-08-23T03:42:22.201Z,1.30
2017-08-23T03:44:49.707Z,0.93
2017-08-23T03:47:17.219Z,0.97
2017-08-23T03:49:44.745Z,1.00
2017-08-23T03:52:12.253Z,1.00
2017-08-23T03:54:39.784Z,1.27
2017-08-23T03:57:07.299Z,1.20
2017-08-23T03:59:34.831Z,1.10
2017-08-23T04:02:02.356Z,1.00
2017-08-23T04:04:29.890Z,1.10
2017-08-23T04:06:57.426Z,1.10
2017-08-23T04:09:24.929Z,1.03
2017-08-23T04:11:52.424Z,3.33
2017-08-23T04:14:19.951Z,3.00
2017-08-23T04:16:47.561Z,1.10
2017-08-23T04:19:15.086Z,0.97
2017-08-23T04:21:42.592Z,0.80
2017-08-23T04:24:10.124Z,1.33
2017-08-23T04:26:37.613Z,1.20
2017-08-23T04:29:05.108Z,1.30
2017-08-23T04:31:32.643Z,1.37
2017-08-23T04:34:00.135Z,0.90
2017-08-23T04:36:27.660Z,1.03
2017-08-23T04:41:29.226Z,0.70
2017-08-23T04:43:56.724Z,0.93
2017-08-23T04:46:24.217Z,1.20
2017-08-23T04:48:51.753Z,1.07
2017-08-23T04:51:19.258Z,1.00
2017-08-23T04:53:46.801Z,0.90
2017-08-23T04:56:14.298Z,0.97
2017-08-23T04:58:41.799Z,0.80
2017-08-23T05:01:09.328Z,0.90
2017-08-23T05:03:36.826Z,1.00
2017-08-23T05:06:04.349Z,1.10
2017-08-23T05:08:31.869Z,0.90
2017-08-23T05:10:59.377Z,1.00
2017-08-23T05:13:26.907Z,0.87
2017-08-23T05:15:54.405Z,0.87
2017-08-23T05:18:21.904Z,0.90
2017-08-23T05:20:49.428Z,0.80
2017-08-23T05:23:16.925Z,0.67
2017-08-23T05:25:44.451Z,0.50
2017-08-23T05:28:11.953Z,0.50
2017-08-23T05:30:39.467Z,0.70
2017-08-23T05:33:06.974Z,0.60
2017-08-23T05:35:34.502Z,0.67
2017-08-23T05:38:02.021Z,0.50
2017-08-23T05:40:29.533Z,0.60
2017-08-23T05:42:57.047Z,0.50
2017-08-23T05:45:24.586Z,0.67
2017-08-23T05:47:52.092Z,0.97
2017-08-23T05:50:19.598Z,0.90
2017-08-23T05:52:47.120Z,0.57
2017-08-23T05:55:14.621Z,0.70
2017-08-23T05:57:42.130Z,0.60
2017-08-23T06:00:09.690Z,0.50
2017-08-23T06:02:37.193Z,0.63
2017-08-23T06:05:04.724Z,0.73
2017-08-23T06:07:32.218Z,1.00
2017-08-23T06:09:59.757Z,0.60
2017-08-23T06:12:27.258Z,1.00
2017-08-23T06:14:54.775Z,3.03
2017-08-23T06:17:22.298Z,0.53
2017-08-23T06:19:49.801Z,1.10
2017-08-23T06:22:17.320Z,0.53
2017-08-23T06:24:44.812Z,2.00
2017-08-23T06:27:12.328Z,0.70
2017-08-23T06:29:39.860Z,0.60
2017-08-23T06:32:07.351Z,0.70
2017-08-23T06:34:34.880Z,0.70
2017-08-23T06:37:02.383Z,1.07
2017-08-23T06:39:29.920Z,0.60
2017-08-23T06:41:57.444Z,0.70
2017-08-23T06:44:24.972Z,0.60
2017-08-23T06:46:52.474Z,0.50
2017-08-23T06:49:19.974Z,0.60
2017-08-23T06:51:47.505Z,0.60
2017-08-23T06:54:15.012Z,0.50
2017-08-23T06:56:42.521Z,0.60
2017-08-23T06:59:10.055Z,0.43
2017-08-23T07:01:37.552Z,0.63
2017-08-23T07:04:05.073Z,0.73
2017-08-23T07:06:32.604Z,0.60
2017-08-23T07:09:00.105Z,0.77
2017-08-23T07:11:27.633Z,0.60
2017-08-23T07:13:55.134Z,0.70
2017-08-23T07:16:22.664Z,0.67
2017-08-23T07:18:50.158Z,0.60
2017-08-23T07:21:17.666Z,0.70
2017-08-23T07:23:45.205Z,0.60
2017-08-23T07:26:12.701Z,0.60
2017-08-23T07:28:40.201Z,0.60
2017-08-23T07:31:07.722Z,0.50
2017-08-23T07:33:35.217Z,0.60
2017-08-23T07:36:02.744Z,0.50
2017-08-23T07:38:30.243Z,0.50
2017-08-23T07:40:57.733Z,0.53
2017-08-23T07:43:25.284Z,0.50
2017-08-23T07:45:52.771Z,0.93
2017-08-23T07:48:20.283Z,0.73
2017-08-23T07:50:47.809Z,0.53
2017-08-23T07:53:15.345Z,0.60
2017-08-23T07:55:42.851Z,0.90
2017-08-23T07:58:10.359Z,0.70
2017-08-23T08:00:37.897Z,0.60
2017-08-23T08:03:05.427Z,0.50
2017-08-23T08:05:32.934Z,0.60
2017-08-23T08:08:00.475Z,0.50
2017-08-23T08:10:27.984Z,0.53
2017-08-23T08:12:55.485Z,0.57
2017-08-23T08:15:23.022Z,0.50
2017-08-23T08:17:50.524Z,0.60
2017-08-23T08:20:18.053Z,0.53
2017-08-23T08:22:45.558Z,0.50
2017-08-23T08:25:13.098Z,0.60
2017-08-23T08:27:40.594Z,0.50
2017-08-23T08:30:08.139Z,0.70
2017-08-23T08:32:35.642Z,0.60
2017-08-23T08:35:03.169Z,1.17
2017-08-23T08:37:30.703Z,0.70
2017-08-23T08:39:58.249Z,1.07
2017-08-23T08:42:25.758Z,0.60
2017-08-23T08:44:53.264Z,0.50
2017-08-23T08:47:20.795Z,0.80
2017-08-23T08:49:48.284Z,0.50
2017-08-23T08:52:15.789Z,1.30
2017-08-23T08:54:43.331Z,0.60
2017-08-23T08:57:10.829Z,0.50
2017-08-23T08:59:38.321Z,0.67
2017-08-23T09:02:05.864Z,1.13
2017-08-23T09:04:33.360Z,0.53
2017-08-23T09:07:00.892Z,0.57
2017-08-23T09:09:28.380Z,0.70
2017-08-23T09:11:55.883Z,0.60
2017-08-23T09:14:23.413Z,0.90
2017-08-23T09:16:50.910Z,1.10
2017-08-23T09:19:18.444Z,0.70
2017-08-23T09:21:45.982Z,0.70
2017-08-23T09:24:13.477Z,0.60
2017-08-23T09:26:41.025Z,0.60
2017-08-23T09:29:08.523Z,0.93
2017-08-23T09:31:36.021Z,1.77
2017-08-23T09:34:03.540Z,1.23
2017-08-23T09:36:31.053Z,0.70
2017-08-23T09:38:58.581Z,0.77
2017-08-23T09:41:26.088Z,0.60
2017-08-23T09:43:53.625Z,0.67
2017-08-23T09:46:21.127Z,0.80
2017-08-23T09:48:48.620Z,0.50
2017-08-23T09:51:16.157Z,0.80
2017-08-23T09:53:43.652Z,0.60
2017-08-23T09:56:11.162Z,0.90
2017-08-23T09:58:38.701Z,0.63
2017-08-23T10:01:06.199Z,0.63
2017-08-23T10:03:33.692Z,0.70
2017-08-23T10:06:01.221Z,0.60
2017-08-23T10:08:28.756Z,0.80
2017-08-23T10:10:56.285Z,0.67
2017-08-23T10:13:23.822Z,0.60
2017-08-23T10:15:51.323Z,0.60
2017-08-23T10:18:18.824Z,1.00
2017-08-23T10:20:46.365Z,0.70
2017-08-23T10:23:13.867Z,1.20
2017-08-23T10:25:41.371Z,0.70
2017-08-23T10:28:08.908Z,0.70
2017-08-23T10:30:36.428Z,0.60
2017-08-23T10:33:03.958Z,0.70
2017-08-23T10:35:31.472Z,0.60
2017-08-23T10:37:59.013Z,0.60
2017-08-23T10:40:26.586Z,0.80
2017-08-23T10:42:54.173Z,1.00
2017-08-23T10:45:21.709Z,0.77
2017-08-23T10:47:49.210Z,0.80
2017-08-23T10:50:16.729Z,1.10
2017-08-23T10:52:44.253Z,1.17
2017-08-23T10:55:11.775Z,1.20
2017-08-23T10:57:39.310Z,0.80
2017-08-23T11:00:06.814Z,0.80
2017-08-23T11:02:34.328Z,1.00
2017-08-23T11:05:01.865Z,0.73
2017-08-23T11:07:29.377Z,0.90
2017-08-23T11:09:56.908Z,0.87
2017-08-23T11:12:24.490Z,0.90
2017-08-23T11:14:52.007Z,1.10
2017-08-23T11:17:19.537Z,1.00
2017-08-23T11:19:47.087Z,1.03
2017-08-23T11:22:14.588Z,1.00
2017-08-23T11:24:42.090Z,0.70
2017-08-23T11:27:10.479Z,0.80
2017-08-23T11:29:37.982Z,1.00
2017-08-23T11:32:05.524Z,1.30
2017-08-23T11:34:33.024Z,0.80
2017-08-23T11:37:00.554Z,1.00
2017-08-23T11:39:28.108Z,0.60
2017-08-23T11:41:55.614Z,1.20
2017-08-23T11:44:23.111Z,3.07
2017-08-23T11:46:50.653Z,1.00
2017-08-23T11:49:18.153Z,0.70
2017-08-23T11:51:45.693Z,1.17
2017-08-23T11:54:13.195Z,4.00
2017-08-23T11:56:40.706Z,0.80
2017-08-23T11:59:08.238Z,1.13
2017-08-23T12:01:35.767Z,0.73
2017-08-23T12:04:03.274Z,1.50
2017-08-23T12:06:30.813Z,1.53
2017-08-23T12:08:58.305Z,1.00
2017-08-23T12:11:25.822Z,0.93
2017-08-23T12:13:53.356Z,1.00
2017-08-23T12:16:20.929Z,1.40
2017-08-23T12:18:48.425Z,1.70
2017-08-23T12:21:15.958Z,1.10
2017-08-23T12:23:43.485Z,1.30
2017-08-23T12:26:11.105Z,0.83
2017-08-23T12:28:38.610Z,1.27
2017-08-23T12:31:06.117Z,1.00
2017-08-23T12:33:33.635Z,1.63
2017-08-23T12:36:01.138Z,1.53
2017-08-23T12:38:28.647Z,1.30
2017-08-23T12:40:56.938Z,0.73
2017-08-23T12:43:24.437Z,1.20
2017-08-23T12:45:51.934Z,0.90
2017-08-23T12:48:19.554Z,1.20
2017-08-23T12:50:47.056Z,1.23
2017-08-23T12:53:14.548Z,1.23
2017-08-23T12:55:42.163Z,1.80
2017-08-23T12:58:09.667Z,1.53
2017-08-23T13:00:37.177Z,0.77
2017-08-23T13:03:04.704Z,1.07
2017-08-23T13:05:32.203Z,1.07
2017-08-23T13:07:59.712Z,1.10
2017-08-23T13:10:27.229Z,0.90
2017-08-23T13:12:54.725Z,0.80
2017-08-23T13:15:22.221Z,1.07
2017-08-23T13:17:49.779Z,0.90
2017-08-23T13:20:17.672Z,0.90
2017-08-23T13:22:47.759Z,0.90
2017-08-23T13:25:15.296Z,1.33
2017-08-23T13:27:42.805Z,0.90
2017-08-23T13:30:10.304Z,1.00
2017-08-23T13:32:37.820Z,0.80
2017-08-23T13:35:05.323Z,0.87
2017-08-23T13:37:32.828Z,12.87
2017-08-23T13:40:00.356Z,2.20
2017-08-23T13:42:27.855Z,1.27
2017-08-23T13:44:55.347Z,1.37
2017-08-23T13:47:22.865Z,1.07
2017-08-23T13:49:50.370Z,1.00
2017-08-23T13:52:17.881Z,0.90
2017-08-23T13:54:45.423Z,0.93
2017-08-23T13:57:12.961Z,0.90
2017-08-23T13:59:40.461Z,0.73
2017-08-23T14:02:07.974Z,0.90
2017-08-23T14:04:35.460Z,0.80
2017-08-23T14:07:02.959Z,1.03
2017-08-23T14:09:30.777Z,0.80
2017-08-23T14:11:58.284Z,1.03
2017-08-23T14:14:25.793Z,0.70
2017-08-23T14:16:53.420Z,1.13
2017-08-23T14:19:20.972Z,1.00
2017-08-23T14:21:48.481Z,1.67
2017-08-23T14:24:16.125Z,0.90
2017-08-23T14:26:43.620Z,1.10
2017-08-23T14:29:11.130Z,0.90
2017-08-23T14:31:38.667Z,1.90
2017-08-23T14:34:06.173Z,0.93
2017-08-23T14:36:33.661Z,0.93
2017-08-23T14:39:01.185Z,1.10
2017-08-23T14:41:28.693Z,0.80
2017-08-23T14:43:56.198Z,0.77
2017-08-23T14:46:23.827Z,0.90
2017-08-23T14:48:51.338Z,0.80
2017-08-23T14:51:18.845Z,0.77
2017-08-23T14:53:46.393Z,0.77
2017-08-23T14:56:13.907Z,0.80
2017-08-23T14:58:41.405Z,0.77
2017-08-23T15:01:08.934Z,0.80
2017-08-23T15:03:36.448Z,0.83
2017-08-23T15:06:03.953Z,0.70
2017-08-23T15:08:31.486Z,0.80
2017-08-23T15:10:58.989Z,5.30
2017-08-23T15:13:26.501Z,1.90
2017-08-23T15:15:54.014Z,1.07
2017-08-23T15:18:21.512Z,1.17
2017-08-23T15:20:49.010Z,0.70
2017-08-23T15:23:16.574Z,2.53
2017-08-23T15:25:44.092Z,0.80
2017-08-23T15:28:11.593Z,0.70
2017-08-23T15:30:39.119Z,0.90
2017-08-23T15:33:06.616Z,0.97
2017-08-23T15:35:34.109Z,1.10
2017-08-23T15:38:01.640Z,0.90
2017-08-23T15:40:29.143Z,0.90
2017-08-23T15:43:01.793Z,1.17
2017-08-23T15:45:30.240Z,1.30
2017-08-23T15:47:59.689Z,0.83
2017-08-23T15:50:28.198Z,0.90
2017-08-23T15:52:55.763Z,0.90
2017-08-23T15:55:23.259Z,1.07
2017-08-23T15:57:50.778Z,1.13
2017-08-23T16:00:18.273Z,1.00
2017-08-23T16:02:49.145Z,1.00
2017-08-23T16:05:16.663Z,1.00
2017-08-23T16:07:44.162Z,0.90
2017-08-23T16:10:11.666Z,0.87
2017-08-23T16:12:39.202Z,1.00
2017-08-23T16:15:06.714Z,0.73
2017-08-23T16:17:34.206Z,0.73
2017-08-23T16:20:01.867Z,0.90
2017-08-23T16:22:29.369Z,0.80
2017-08-23T16:24:56.878Z,0.67
2017-08-23T16:27:24.406Z,0.70
2017-08-23T16:29:51.911Z,0.80
2017-08-23T16:32:19.433Z,0.93
2017-08-23T16:34:46.957Z,0.67
2017-08-23T16:37:14.457Z,0.83
2017-08-23T16:39:41.962Z,0.60
2017-08-23T16:42:09.875Z,0.60
2017-08-23T16:44:37.394Z,0.90
2017-08-23T16:47:04.913Z,0.67
2017-08-23T16:49:32.451Z,0.97
2017-08-23T16:51:59.946Z,0.70
2017-08-23T16:54:27.439Z,0.90
2017-08-23T16:56:54.979Z,0.83
2017-08-23T16:59:22.474Z,0.70
2017-08-23T17:01:49.977Z,0.73
2017-08-23T17:04:17.589Z,1.00
2017-08-23T17:06:45.078Z,1.00
2017-08-23T17:09:12.587Z,0.90
2017-08-23T17:11:40.117Z,0.80
2017-08-23T17:14:07.626Z,0.80
2017-08-23T17:16:35.129Z,0.63
2017-08-23T17:19:02.646Z,0.90
2017-08-23T17:21:30.146Z,0.80
2017-08-23T17:23:57.662Z,0.77
2017-08-23T17:26:25.182Z,1.90
2017-08-23T17:28:52.690Z,0.77
2017-08-23T17:31:20.202Z,0.80
2017-08-23T17:33:47.750Z,0.70
2017-08-23T17:36:15.243Z,0.60
2017-08-23T17:38:43.496Z,0.80
2017-08-23T17:41:11.200Z,1.33
2017-08-23T17:43:38.729Z,2.33
2017-08-23T17:46:06.221Z,2.83
2017-08-23T17:48:33.744Z,4.20
2017-08-23T17:51:01.239Z,4.70
2017-08-23T17:53:28.732Z,2.70
2017-08-23T17:55:56.239Z,1.70
2017-08-23T17:58:23.737Z,1.20
2017-08-23T18:00:51.246Z,1.27
2017-08-23T18:03:18.874Z,0.97
2017-08-23T18:05:46.368Z,2.90
2017-08-23T18:08:13.875Z,9.43
2017-08-23T18:10:41.380Z,6.40
2017-08-23T18:13:08.899Z,16.90
2017-08-23T18:15:36.406Z,13.57
2017-08-23T18:18:04.019Z,7.90
2017-08-23T18:20:31.513Z,4.63
2017-08-23T18:22:59.013Z,2.50
2017-08-23T18:25:26.654Z,3.13
2017-08-23T18:27:54.150Z,1.60
2017-08-23T18:30:21.655Z,1.73
2017-08-23T18:32:49.182Z,1.40
2017-08-23T18:35:16.693Z,1.40
2017-08-23T18:37:44.201Z,2.80
2017-08-23T18:40:11.737Z,0.97
2017-08-23T18:42:39.247Z,1.73
2017-08-23T18:45:06.744Z,1.80
2017-08-23T18:47:34.258Z,1.60
2017-08-23T18:50:01.757Z,1.70
2017-08-23T18:52:29.268Z,1.50
2017-08-23T18:54:56.764Z,1.03
2017-08-23T18:57:24.273Z,3.93
2017-08-23T18:59:51.829Z,1.30
2017-08-23T19:02:19.328Z,3.10
2017-08-23T19:04:46.845Z,4.40
2017-08-23T19:07:14.344Z,8.90
2017-08-23T19:09:41.961Z,7.73
2017-08-23T19:12:09.461Z,7.47
2017-08-23T19:14:36.993Z,4.87
2017-08-23T19:17:04.521Z,3.37
2017-08-23T19:19:32.088Z,3.57
2017-08-23T19:21:59.607Z,2.50
2017-08-23T19:24:27.174Z,1.23
2017-08-23T19:26:54.953Z,2.50
2017-08-23T19:29:22.453Z,1.30
2017-08-23T19:31:49.985Z,1.40
2017-08-23T19:34:17.520Z,1.83
2017-08-23T19:36:45.126Z,1.80
2017-08-23T19:39:12.657Z,2.40
2017-08-23T19:41:40.177Z,2.17
2017-08-23T19:44:07.702Z,1.00
2017-08-23T19:46:35.232Z,2.03
2017-08-23T19:49:02.737Z,1.33
2017-08-23T19:51:30.308Z,1.43
2017-08-23T19:53:57.817Z,1.33
2017-08-23T19:56:25.315Z,1.20
2017-08-23T19:58:52.852Z,1.50
2017-08-23T20:01:20.363Z,1.23
2017-08-23T20:03:47.863Z,1.50
2017-08-23T20:06:15.408Z,1.50
2017-08-23T20:08:42.905Z,1.53
2017-08-23T20:11:10.405Z,1.40
2017-08-23T20:13:37.936Z,1.40
2017-08-23T20:16:05.434Z,1.53
2017-08-23T20:18:32.955Z,1.10
2017-08-23T20:21:00.454Z,1.53
2017-08-23T20:23:27.997Z,1.23
2017-08-23T20:25:55.796Z,1.87
2017-08-23T20:28:23.396Z,1.97
2017-08-23T20:30:51.009Z,1.60
2017-08-23T20:33:18.558Z,1.50
2017-08-23T20:38:20.962Z,1.30
2017-08-23T20:40:48.466Z,1.90
2017-08-23T20:43:17.821Z,1.40
2017-08-23T20:45:45.402Z,2.40
2017-08-23T20:48:12.932Z,1.50
2017-08-23T20:50:40.432Z,1.87
2017-08-23T20:53:07.935Z,2.00
2017-08-23T20:55:35.473Z,1.47
2017-08-23T20:58:02.969Z,1.20
2017-08-23T21:00:30.550Z,1.30
2017-08-23T21:02:58.040Z,1.00
2017-08-23T21:05:25.542Z,2.00
2017-08-23T21:07:53.069Z,1.20
2017-08-23T21:10:20.567Z,1.10
2017-08-23T21:12:48.139Z,2.27
2017-08-23T21:15:15.627Z,1.47
2017-08-23T21:17:43.129Z,1.00
2017-08-23T21:20:10.689Z,1.33
2017-08-23T21:22:38.198Z,1.97
2017-08-23T21:25:05.701Z,1.10
2017-08-23T21:27:34.182Z,1.47
2017-08-23T21:30:01.751Z,1.60
2017-08-23T21:32:29.262Z,1.27
2017-08-23T21:34:56.749Z,1.10
2017-08-23T21:37:24.412Z,1.37
2017-08-23T21:39:51.978Z,1.13
2017-08-23T21:42:19.513Z,1.73
2017-08-23T21:44:47.019Z,1.50
2017-08-23T21:47:14.624Z,1.33
2017-08-23T21:49:42.129Z,3.40
2017-08-23T21:52:09.668Z,1.20
2017-08-23T21:54:37.175Z,2.30
2017-08-23T21:57:04.709Z,1.37
2017-08-23T22:02:05.969Z,1.10
2017-08-23T22:04:33.502Z,3.63
2017-08-23T22:07:01.039Z,1.27
2017-08-23T22:09:28.541Z,0.90
2017-08-23T22:11:56.075Z,2.50
2017-08-23T22:14:23.565Z,2.40
2017-08-23T22:16:51.073Z,1.53
2017-08-23T22:19:18.650Z,1.13
2017-08-23T22:21:46.149Z,1.13
2017-08-23T22:24:13.657Z,0.93
2017-08-23T22:26:41.206Z,1.73
2017-08-23T22:29:08.784Z,0.90
2017-08-23T22:31:36.285Z,0.73
2017-08-23T22:34:03.856Z,1.00
2017-08-23T22:36:31.348Z,1.40
2017-08-23T22:38:58.870Z,1.10
2017-08-23T22:41:26.491Z,2.00
2017-08-23T22:43:53.994Z,1.30
2017-08-23T22:46:21.520Z,0.90
2017-08-23T22:48:49.104Z,0.90
2017-08-23T22:51:16.654Z,0.90
2017-08-23T22:53:45.304Z,1.27
2017-08-23T22:56:12.838Z,1.13
2017-08-23T22:58:40.473Z,1.40
2017-08-23T23:01:07.982Z,0.80
2017-08-23T23:03:35.522Z,0.90
2017-08-23T23:06:03.013Z,1.93
2017-08-23T23:08:30.541Z,1.43
2017-08-23T23:10:58.036Z,1.73
2017-08-23T23:13:25.570Z,1.07
2017-08-23T23:15:53.112Z,1.00
2017-08-23T23:18:20.618Z,1.30
2017-08-23T23:20:48.121Z,1.10
2017-08-23T23:23:15.758Z,1.77
2017-08-23T23:25:43.274Z,0.80
2017-08-23T23:28:10.888Z,1.33
2017-08-23T23:30:38.387Z,0.83
2017-08-23T23:33:05.910Z,1.30
2017-08-23T23:35:33.438Z,1.20
2017-08-23T23:38:00.933Z,1.60
2017-08-23T23:40:28.441Z,1.10
2017-08-23T23:42:55.948Z,1.30
2017-08-23T23:45:23.445Z,2.20
2017-08-23T23:47:50.976Z,1.20
2017-08-23T23:50:18.661Z,1.30
2017-08-23T23:52:46.322Z,0.90
2017-08-23T23:55:13.833Z,0.90
2017-08-23T23:57:41.374Z,1.10
